This is the latest recevied weather packets stored in our database for station/object KC3JUG-3. If no packets are shown the sender has not sent any weather packets the latest 10 day(s).
| Time | Temp. | Humidity | Pressure | Rain* | Wind** | Luminosity | Snow |
|---|---|---|---|---|---|---|---|
| 1777715148 | 7.78° C | 90% | 1013.7 hPa | 0 mm | - | - | - |
| 1777714847 | 7.78° C | 90% | 1013.6 hPa | 0 mm | - | - | - |
| 1777714547 | 7.78° C | 90% | 1013.6 hPa | 0 mm | - | - | - |
| 1777714263 | 7.78° C | 90% | 1013.6 hPa | 0 mm | - | - | - |
| 1777713046 | 7.78° C | 92% | 1013.5 hPa | 0 mm | - | - | - |
| 1777711851 | 7.78° C | 92% | 1013.4 hPa | 0 mm | - | - | - |
| 1777707646 | 8.33° C | 90% | 1013.1 hPa | 0 mm | - | - | - |
| 1777707347 | 8.33° C | 90% | 1013.1 hPa | 0 mm | - | - | - |
| 1777705849 | 8.89° C | 88% | 1013.3 hPa | 0 mm | - | - | - |
| 1777702847 | 9.44° C | 85% | 1013.6 hPa | 0 mm | - | - | - |
| 1777699547 | 10° C | 81% | 1014.3 hPa | 0 mm | - | - | - |
| 1777698051 | 10° C | 78% | 1014 hPa | 0 mm | - | - | - |
| 1777697152 | 10° C | 78% | 1013.9 hPa | 0 mm | - | - | - |
| 1777696845 | 10° C | 79% | 1013.8 hPa | 0 mm | - | - | - |
| 1777694146 | 10.56° C | 77% | 1013.9 hPa | 0 mm | - | - | - |
| 1777693246 | 11.11° C | 74% | 1013.6 hPa | 0 mm | - | - | - |
| 1777689963 | 11.11° C | 70% | 1013.4 hPa | 0 mm | - | - | - |
| 1777689346 | 10.56° C | 73% | 1013.1 hPa | 0 mm | - | - | - |
| 1777686046 | 12.22° C | 62% | 1013.5 hPa | 0 mm | - | - | - |
| 1777685456 | 12.22° C | 62% | 1013.3 hPa | 0 mm | - | - | - |
| 1777683945 | 12.22° C | 62% | 1013 hPa | 0 mm | - | - | - |
| 1777683045 | 12.78° C | 61% | 1012.7 hPa | 0 mm | - | - | - |
| 1777680345 | 13.33° C | 59% | 1012.6 hPa | 0 mm | - | - | - |
| 1777678547 | 13.33° C | 59% | 1012.5 hPa | 0 mm | - | - | - |
| 1777674945 | 15° C | 54% | 1011.9 hPa | 0 mm | - | - | - |
* Rain latest hour (hover to see other rain measurements)
** Current wind speed in m/s (hover to see current wind gust speed)